You are not logged in, Click here to log in
溫貝托·德爾加多機場 LIS / LPPT 葡萄牙首都里斯本-市郊的波爾特拉
ICAO: LPPT Country: 葡萄牙首都里斯本-市郊的波爾特拉
Latitude: 38.7756 Longitude: -9.13537
Total Arrivals: 13 Total Departures: 18
Latest Arrival: FS9024 (LXGB-LPPT)Arthur. Kung Latest Departure: TP1034 (LPPT-LEBL)Arthur. Kung
Scenery:
METAR : LPPT 110330Z 31013KT CAVOK 18/15 Q1012

溫貝托·德爾加多機場 LIS

You are accessing this site from IP address 34.229.119.29. Virtual Airline. CMS by phpVMS.Website designed by Zumeweb and edited by Theo Bearman.
There is 1 User(s) Online: | Lun Wang | and 10 Guest(s) Online.
All information on this site is for fight simulation purposes only. This site is for flight logging for pilots of Virtual Airline&模擬飛行論壇 FlySim only.